sensor_id;sensor_type;location;lat;lon;timestamp;P1;durP1;ratioP1;P2;durP2;ratioP2
19167;SDS011;9716;53.114;18.040;2023-04-22T00:01:04;8.57;;;3.15;;
19167;SDS011;9716;53.114;18.040;2023-04-22T00:03:48;6.82;;;3.20;;
19167;SDS011;9716;53.114;18.040;2023-04-22T00:06:17;16.38;;;4.60;;
19167;SDS011;9716;53.114;18.040;2023-04-22T00:08:46;9.90;;;3.88;;
19167;SDS011;9716;53.114;18.040;2023-04-22T00:11:14;8.32;;;3.35;;
19167;SDS011;9716;53.114;18.040;2023-04-22T00:13:42;9.82;;;3.42;;
19167;SDS011;9716;53.114;18.040;2023-04-22T00:16:11;12.60;;;3.97;;
19167;SDS011;9716;53.114;18.040;2023-04-22T00:18:40;9.43;;;4.28;;
19167;SDS011;9716;53.114;18.040;2023-04-22T00:21:10;5.80;;;2.95;;
19167;SDS011;9716;53.114;18.040;2023-04-22T00:23:38;5.38;;;3.03;;
19167;SDS011;9716;53.114;18.040;2023-04-22T00:26:07;7.38;;;3.20;;
19167;SDS011;9716;53.114;18.040;2023-04-22T00:28:36;6.97;;;3.40;;
19167;SDS011;9716;53.114;18.040;2023-04-22T00:31:04;9.70;;;2.75;;
19167;SDS011;9716;53.114;18.040;2023-04-22T00:33:33;7.38;;;3.22;;
19167;SDS011;9716;53.114;18.040;2023-04-22T00:36:02;9.68;;;3.03;;
19167;SDS011;9716;53.114;18.040;2023-04-22T00:38:32;5.13;;;2.78;;
19167;SDS011;9716;53.114;18.040;2023-04-22T00:41:01;5.78;;;2.47;;
19167;SDS011;9716;53.114;18.040;2023-04-22T00:43:29;5.22;;;3.20;;
19167;SDS011;9716;53.114;18.040;2023-04-22T00:45:58;5.40;;;2.95;;
19167;SDS011;9716;53.114;18.040;2023-04-22T00:48:28;7.55;;;3.33;;
19167;SDS011;9716;53.114;18.040;2023-04-22T00:50:57;4.68;;;2.85;;
19167;SDS011;9716;53.114;18.040;2023-04-22T00:53:25;8.55;;;3.35;;
19167;SDS011;9716;53.114;18.040;2023-04-22T00:55:55;6.10;;;3.53;;
19167;SDS011;9716;53.114;18.040;2023-04-22T00:58:24;4.78;;;2.72;;
19167;SDS011;9716;53.114;18.040;2023-04-22T01:00:55;9.35;;;3.85;;
19167;SDS011;9716;53.114;18.040;2023-04-22T01:03:23;12.60;;;2.97;;
19167;SDS011;9716;53.114;18.040;2023-04-22T01:05:54;9.25;;;3.35;;
19167;SDS011;9716;53.114;18.040;2023-04-22T01:08:24;7.75;;;2.45;;
19167;SDS011;9716;53.114;18.040;2023-04-22T01:10:57;5.13;;;3.10;;
19167;SDS011;9716;53.114;18.040;2023-04-22T01:13:26;4.13;;;2.72;;
19167;SDS011;9716;53.114;18.040;2023-04-22T01:15:56;5.63;;;3.30;;
19167;SDS011;9716;53.114;18.040;2023-04-22T01:18:25;6.47;;;3.08;;
19167;SDS011;9716;53.114;18.040;2023-04-22T01:20:54;7.25;;;3.13;;
19167;SDS011;9716;53.114;18.040;2023-04-22T01:23:24;5.93;;;3.42;;
19167;SDS011;9716;53.114;18.040;2023-04-22T01:25:53;5.38;;;3.22;;
19167;SDS011;9716;53.114;18.040;2023-04-22T01:28:21;4.97;;;3.00;;
19167;SDS011;9716;53.114;18.040;2023-04-22T01:30:51;7.18;;;2.78;;
19167;SDS011;9716;53.114;18.040;2023-04-22T01:33:20;6.25;;;3.00;;
19167;SDS011;9716;53.114;18.040;2023-04-22T01:35:48;8.85;;;3.08;;
19167;SDS011;9716;53.114;18.040;2023-04-22T01:38:17;9.75;;;3.42;;
19167;SDS011;9716;53.114;18.040;2023-04-22T01:40:46;14.55;;;3.92;;
19167;SDS011;9716;53.114;18.040;2023-04-22T01:43:15;13.43;;;3.45;;
19167;SDS011;9716;53.114;18.040;2023-04-22T01:45:43;9.23;;;4.05;;
19167;SDS011;9716;53.114;18.040;2023-04-22T01:48:12;9.85;;;4.15;;
19167;SDS011;9716;53.114;18.040;2023-04-22T01:50:41;5.70;;;3.38;;
19167;SDS011;9716;53.114;18.040;2023-04-22T01:53:09;7.88;;;3.25;;
19167;SDS011;9716;53.114;18.040;2023-04-22T01:55:38;8.90;;;3.30;;
19167;SDS011;9716;53.114;18.040;2023-04-22T01:58:08;14.45;;;4.07;;
19167;SDS011;9716;53.114;18.040;2023-04-22T02:00:36;5.25;;;3.28;;
19167;SDS011;9716;53.114;18.040;2023-04-22T02:03:05;6.20;;;3.25;;
19167;SDS011;9716;53.114;18.040;2023-04-22T02:05:33;9.25;;;3.97;;
19167;SDS011;9716;53.114;18.040;2023-04-22T02:08:02;14.10;;;4.30;;
19167;SDS011;9716;53.114;18.040;2023-04-22T02:10:30;7.65;;;3.60;;
19167;SDS011;9716;53.114;18.040;2023-04-22T02:12:58;8.25;;;3.88;;
19167;SDS011;9716;53.114;18.040;2023-04-22T02:15:30;9.50;;;3.65;;
19167;SDS011;9716;53.114;18.040;2023-04-22T02:17:59;8.20;;;3.22;;
19167;SDS011;9716;53.114;18.040;2023-04-22T02:20:27;13.05;;;3.20;;
19167;SDS011;9716;53.114;18.040;2023-04-22T02:22:56;10.00;;;3.65;;
19167;SDS011;9716;53.114;18.040;2023-04-22T02:25:24;9.30;;;3.30;;
19167;SDS011;9716;53.114;18.040;2023-04-22T02:27:53;6.38;;;3.00;;
19167;SDS011;9716;53.114;18.040;2023-04-22T02:30:22;5.00;;;2.70;;
19167;SDS011;9716;53.114;18.040;2023-04-22T02:32:52;6.25;;;2.78;;
19167;SDS011;9716;53.114;18.040;2023-04-22T02:35:21;9.35;;;3.38;;
19167;SDS011;9716;53.114;18.040;2023-04-22T02:37:49;6.57;;;2.90;;
19167;SDS011;9716;53.114;18.040;2023-04-22T02:40:18;9.95;;;2.83;;
19167;SDS011;9716;53.114;18.040;2023-04-22T02:42:46;4.68;;;3.40;;
19167;SDS011;9716;53.114;18.040;2023-04-22T02:45:15;7.05;;;3.35;;
19167;SDS011;9716;53.114;18.040;2023-04-22T02:47:43;5.47;;;2.70;;
19167;SDS011;9716;53.114;18.040;2023-04-22T02:50:13;6.18;;;2.80;;
19167;SDS011;9716;53.114;18.040;2023-04-22T02:52:42;8.25;;;3.40;;
19167;SDS011;9716;53.114;18.040;2023-04-22T02:55:10;8.13;;;3.03;;
19167;SDS011;9716;53.114;18.040;2023-04-22T02:57:38;4.82;;;2.83;;
19167;SDS011;9716;53.114;18.040;2023-04-22T03:00:07;5.28;;;2.60;;
19167;SDS011;9716;53.114;18.040;2023-04-22T03:02:37;6.03;;;2.70;;
19167;SDS011;9716;53.114;18.040;2023-04-22T03:05:05;10.15;;;2.92;;
19167;SDS011;9716;53.114;18.040;2023-04-22T03:07:36;6.75;;;2.58;;
19167;SDS011;9716;53.114;18.040;2023-04-22T03:10:06;9.55;;;3.20;;
19167;SDS011;9716;53.114;18.040;2023-04-22T03:12:35;8.82;;;3.50;;
19167;SDS011;9716;53.114;18.040;2023-04-22T03:15:04;7.93;;;3.13;;
19167;SDS011;9716;53.114;18.040;2023-04-22T03:17:33;5.10;;;3.00;;
19167;SDS011;9716;53.114;18.040;2023-04-22T03:20:02;5.28;;;2.92;;
19167;SDS011;9716;53.114;18.040;2023-04-22T03:22:32;6.88;;;3.50;;
19167;SDS011;9716;53.114;18.040;2023-04-22T03:25:02;6.40;;;3.60;;
19167;SDS011;9716;53.114;18.040;2023-04-22T03:27:32;8.57;;;3.28;;
19167;SDS011;9716;53.114;18.040;2023-04-22T03:30:00;3.80;;;2.60;;
19167;SDS011;9716;53.114;18.040;2023-04-22T03:32:29;10.23;;;3.97;;
19167;SDS011;9716;53.114;18.040;2023-04-22T03:34:58;7.45;;;3.90;;
19167;SDS011;9716;53.114;18.040;2023-04-22T03:37:26;10.63;;;4.65;;
19167;SDS011;9716;53.114;18.040;2023-04-22T03:39:56;6.75;;;3.75;;
19167;SDS011;9716;53.114;18.040;2023-04-22T03:42:25;8.25;;;4.05;;
19167;SDS011;9716;53.114;18.040;2023-04-22T03:44:54;8.93;;;4.60;;
19167;SDS011;9716;53.114;18.040;2023-04-22T03:47:22;7.53;;;3.75;;
19167;SDS011;9716;53.114;18.040;2023-04-22T03:49:51;14.25;;;4.88;;
19167;SDS011;9716;53.114;18.040;2023-04-22T03:52:20;13.50;;;4.72;;
19167;SDS011;9716;53.114;18.040;2023-04-22T03:54:48;13.98;;;4.60;;
19167;SDS011;9716;53.114;18.040;2023-04-22T03:57:17;15.70;;;4.47;;
19167;SDS011;9716;53.114;18.040;2023-04-22T03:59:47;8.18;;;3.60;;
19167;SDS011;9716;53.114;18.040;2023-04-22T04:02:16;5.95;;;3.47;;
19167;SDS011;9716;53.114;18.040;2023-04-22T04:04:44;18.60;;;4.82;;
19167;SDS011;9716;53.114;18.040;2023-04-22T04:07:13;9.10;;;3.78;;
19167;SDS011;9716;53.114;18.040;2023-04-22T04:09:41;9.32;;;3.72;;
19167;SDS011;9716;53.114;18.040;2023-04-22T04:12:10;12.50;;;4.13;;
19167;SDS011;9716;53.114;18.040;2023-04-22T04:14:38;11.80;;;4.05;;
19167;SDS011;9716;53.114;18.040;2023-04-22T04:17:08;11.93;;;3.92;;
19167;SDS011;9716;53.114;18.040;2023-04-22T04:19:39;10.93;;;3.60;;
19167;SDS011;9716;53.114;18.040;2023-04-22T04:22:08;8.07;;;3.67;;
19167;SDS011;9716;53.114;18.040;2023-04-22T04:24:37;12.07;;;4.43;;
19167;SDS011;9716;53.114;18.040;2023-04-22T04:27:07;14.13;;;4.88;;
19167;SDS011;9716;53.114;18.040;2023-04-22T04:29:37;9.13;;;4.55;;
19167;SDS011;9716;53.114;18.040;2023-04-22T04:32:08;9.63;;;4.60;;
19167;SDS011;9716;53.114;18.040;2023-04-22T04:34:37;9.32;;;4.70;;
19167;SDS011;9716;53.114;18.040;2023-04-22T04:37:05;13.68;;;5.60;;
19167;SDS011;9716;53.114;18.040;2023-04-22T04:39:34;9.15;;;4.22;;
19167;SDS011;9716;53.114;18.040;2023-04-22T04:42:02;10.30;;;4.07;;
19167;SDS011;9716;53.114;18.040;2023-04-22T04:44:31;8.68;;;4.18;;
19167;SDS011;9716;53.114;18.040;2023-04-22T04:46:59;10.75;;;4.65;;
19167;SDS011;9716;53.114;18.040;2023-04-22T04:49:30;13.27;;;5.07;;
19167;SDS011;9716;53.114;18.040;2023-04-22T04:51:58;12.10;;;5.95;;
19167;SDS011;9716;53.114;18.040;2023-04-22T04:54:27;16.75;;;6.10;;
19167;SDS011;9716;53.114;18.040;2023-04-22T04:56:56;11.75;;;6.32;;
19167;SDS011;9716;53.114;18.040;2023-04-22T04:59:24;13.88;;;6.53;;
19167;SDS011;9716;53.114;18.040;2023-04-22T05:01:52;18.17;;;5.80;;
19167;SDS011;9716;53.114;18.040;2023-04-22T05:04:21;17.42;;;5.95;;
19167;SDS011;9716;53.114;18.040;2023-04-22T05:06:51;10.90;;;5.93;;
19167;SDS011;9716;53.114;18.040;2023-04-22T05:09:21;14.77;;;5.55;;
19167;SDS011;9716;53.114;18.040;2023-04-22T05:11:49;9.15;;;5.05;;
19167;SDS011;9716;53.114;18.040;2023-04-22T05:14:18;11.77;;;5.55;;
19167;SDS011;9716;53.114;18.040;2023-04-22T05:16:46;11.60;;;5.53;;
19167;SDS011;9716;53.114;18.040;2023-04-22T05:19:14;22.88;;;4.90;;
19167;SDS011;9716;53.114;18.040;2023-04-22T05:21:43;15.02;;;4.75;;
19167;SDS011;9716;53.114;18.040;2023-04-22T05:24:13;6.00;;;4.07;;
19167;SDS011;9716;53.114;18.040;2023-04-22T05:26:41;11.00;;;4.60;;
19167;SDS011;9716;53.114;18.040;2023-04-22T05:29:10;7.97;;;4.45;;
19167;SDS011;9716;53.114;18.040;2023-04-22T05:31:38;9.18;;;4.40;;
19167;SDS011;9716;53.114;18.040;2023-04-22T05:34:07;5.13;;;3.75;;
19167;SDS011;9716;53.114;18.040;2023-04-22T05:36:37;10.68;;;4.82;;
19167;SDS011;9716;53.114;18.040;2023-04-22T05:39:06;6.70;;;3.83;;
19167;SDS011;9716;53.114;18.040;2023-04-22T05:41:36;11.07;;;4.95;;
19167;SDS011;9716;53.114;18.040;2023-04-22T05:44:05;11.95;;;4.03;;
19167;SDS011;9716;53.114;18.040;2023-04-22T05:46:33;10.57;;;3.88;;
19167;SDS011;9716;53.114;18.040;2023-04-22T05:49:02;9.07;;;4.22;;
19167;SDS011;9716;53.114;18.040;2023-04-22T05:51:30;7.82;;;3.58;;
19167;SDS011;9716;53.114;18.040;2023-04-22T05:53:59;7.70;;;4.03;;
19167;SDS011;9716;53.114;18.040;2023-04-22T05:56:28;8.45;;;4.03;;
19167;SDS011;9716;53.114;18.040;2023-04-22T05:58:58;7.07;;;3.47;;
19167;SDS011;9716;53.114;18.040;2023-04-22T06:01:26;7.25;;;3.83;;
19167;SDS011;9716;53.114;18.040;2023-04-22T06:03:55;7.53;;;4.22;;
19167;SDS011;9716;53.114;18.040;2023-04-22T06:06:24;8.38;;;3.90;;
19167;SDS011;9716;53.114;18.040;2023-04-22T06:08:53;12.85;;;4.70;;
19167;SDS011;9716;53.114;18.040;2023-04-22T06:11:21;7.95;;;4.10;;
19167;SDS011;9716;53.114;18.040;2023-04-22T06:13:50;14.70;;;4.68;;
19167;SDS011;9716;53.114;18.040;2023-04-22T06:16:20;8.52;;;3.92;;
19167;SDS011;9716;53.114;18.040;2023-04-22T06:18:49;9.48;;;4.47;;
19167;SDS011;9716;53.114;18.040;2023-04-22T06:21:17;9.02;;;4.18;;
19167;SDS011;9716;53.114;18.040;2023-04-22T06:23:46;7.25;;;4.03;;
19167;SDS011;9716;53.114;18.040;2023-04-22T06:26:15;8.18;;;4.35;;
19167;SDS011;9716;53.114;18.040;2023-04-22T06:28:44;12.40;;;4.20;;
19167;SDS011;9716;53.114;18.040;2023-04-22T06:31:12;9.07;;;4.22;;
19167;SDS011;9716;53.114;18.040;2023-04-22T06:33:42;12.68;;;4.53;;
19167;SDS011;9716;53.114;18.040;2023-04-22T06:36:11;9.68;;;4.95;;
19167;SDS011;9716;53.114;18.040;2023-04-22T06:38:40;11.55;;;4.80;;
19167;SDS011;9716;53.114;18.040;2023-04-22T06:41:08;7.70;;;4.05;;
19167;SDS011;9716;53.114;18.040;2023-04-22T06:43:37;9.55;;;4.05;;
19167;SDS011;9716;53.114;18.040;2023-04-22T06:46:06;11.50;;;4.95;;
19167;SDS011;9716;53.114;18.040;2023-04-22T06:48:34;8.57;;;3.63;;
19167;SDS011;9716;53.114;18.040;2023-04-22T06:51:04;10.23;;;5.15;;
19167;SDS011;9716;53.114;18.040;2023-04-22T06:53:33;5.25;;;3.40;;
19167;SDS011;9716;53.114;18.040;2023-04-22T06:56:01;6.88;;;3.97;;
19167;SDS011;9716;53.114;18.040;2023-04-22T06:58:30;14.18;;;3.80;;
19167;SDS011;9716;53.114;18.040;2023-04-22T07:00:59;6.32;;;2.97;;
19167;SDS011;9716;53.114;18.040;2023-04-22T07:03:28;6.82;;;3.60;;
19167;SDS011;9716;53.114;18.040;2023-04-22T07:05:57;3.35;;;2.33;;
19167;SDS011;9716;53.114;18.040;2023-04-22T07:08:27;10.90;;;3.42;;
19167;SDS011;9716;53.114;18.040;2023-04-22T07:10:55;5.13;;;2.78;;
19167;SDS011;9716;53.114;18.040;2023-04-22T07:13:24;4.22;;;2.42;;
19167;SDS011;9716;53.114;18.040;2023-04-22T07:15:53;4.88;;;2.28;;
19167;SDS011;9716;53.114;18.040;2023-04-22T07:18:21;6.57;;;2.83;;
19167;SDS011;9716;53.114;18.040;2023-04-22T07:20:50;4.20;;;2.28;;
19167;SDS011;9716;53.114;18.040;2023-04-22T07:23:18;3.60;;;1.92;;
19167;SDS011;9716;53.114;18.040;2023-04-22T07:25:51;6.63;;;2.58;;
19167;SDS011;9716;53.114;18.040;2023-04-22T07:28:20;3.55;;;2.05;;
19167;SDS011;9716;53.114;18.040;2023-04-22T07:30:48;4.35;;;2.25;;
19167;SDS011;9716;53.114;18.040;2023-04-22T07:33:16;5.07;;;2.05;;
19167;SDS011;9716;53.114;18.040;2023-04-22T07:35:45;4.55;;;1.98;;
19167;SDS011;9716;53.114;18.040;2023-04-22T07:38:14;3.55;;;1.85;;
19167;SDS011;9716;53.114;18.040;2023-04-22T07:40:43;2.17;;;1.30;;
19167;SDS011;9716;53.114;18.040;2023-04-22T07:43:13;2.80;;;1.80;;
19167;SDS011;9716;53.114;18.040;2023-04-22T07:45:41;2.75;;;1.67;;
19167;SDS011;9716;53.114;18.040;2023-04-22T07:48:10;3.13;;;1.65;;
19167;SDS011;9716;53.114;18.040;2023-04-22T07:50:38;2.33;;;1.70;;
19167;SDS011;9716;53.114;18.040;2023-04-22T07:53:07;5.63;;;2.10;;
19167;SDS011;9716;53.114;18.040;2023-04-22T07:55:36;2.42;;;1.83;;
19167;SDS011;9716;53.114;18.040;2023-04-22T07:58:05;12.35;;;1.73;;
19167;SDS011;9716;53.114;18.040;2023-04-22T08:00:34;6.57;;;1.90;;
19167;SDS011;9716;53.114;18.040;2023-04-22T08:03:03;3.40;;;2.13;;
19167;SDS011;9716;53.114;18.040;2023-04-22T08:05:32;6.20;;;2.10;;
19167;SDS011;9716;53.114;18.040;2023-04-22T08:08:00;4.50;;;2.22;;
19167;SDS011;9716;53.114;18.040;2023-04-22T08:10:29;5.90;;;2.50;;
19167;SDS011;9716;53.114;18.040;2023-04-22T08:12:57;3.35;;;2.15;;
19167;SDS011;9716;53.114;18.040;2023-04-22T08:15:26;2.45;;;1.40;;
19167;SDS011;9716;53.114;18.040;2023-04-22T08:17:56;4.53;;;1.80;;
19167;SDS011;9716;53.114;18.040;2023-04-22T08:20:25;5.07;;;2.20;;
19167;SDS011;9716;53.114;18.040;2023-04-22T08:22:53;1.98;;;1.33;;
19167;SDS011;9716;53.114;18.040;2023-04-22T08:25:26;5.88;;;1.65;;
19167;SDS011;9716;53.114;18.040;2023-04-22T08:27:56;4.63;;;2.50;;
19167;SDS011;9716;53.114;18.040;2023-04-22T08:30:24;2.25;;;1.50;;
19167;SDS011;9716;53.114;18.040;2023-04-22T08:32:53;3.05;;;1.80;;
19167;SDS011;9716;53.114;18.040;2023-04-22T08:35:23;4.35;;;1.88;;
19167;SDS011;9716;53.114;18.040;2023-04-22T08:37:52;2.83;;;1.70;;
19167;SDS011;9716;53.114;18.040;2023-04-22T08:40:20;3.05;;;2.08;;
19167;SDS011;9716;53.114;18.040;2023-04-22T08:42:49;4.10;;;1.92;;
19167;SDS011;9716;53.114;18.040;2023-04-22T08:45:19;2.97;;;1.58;;
19167;SDS011;9716;53.114;18.040;2023-04-22T08:47:48;2.30;;;1.50;;
19167;SDS011;9716;53.114;18.040;2023-04-22T08:50:16;6.88;;;1.83;;
19167;SDS011;9716;53.114;18.040;2023-04-22T08:52:49;2.03;;;1.58;;
19167;SDS011;9716;53.114;18.040;2023-04-22T08:55:17;9.07;;;1.70;;
19167;SDS011;9716;53.114;18.040;2023-04-22T08:57:47;2.60;;;1.52;;
19167;SDS011;9716;53.114;18.040;2023-04-22T09:00:16;2.28;;;1.13;;
19167;SDS011;9716;53.114;18.040;2023-04-22T09:02:45;2.00;;;1.25;;
19167;SDS011;9716;53.114;18.040;2023-04-22T09:05:16;3.13;;;1.85;;
19167;SDS011;9716;53.114;18.040;2023-04-22T09:07:46;3.20;;;1.38;;
19167;SDS011;9716;53.114;18.040;2023-04-22T09:10:16;2.70;;;1.48;;
19167;SDS011;9716;53.114;18.040;2023-04-22T09:12:45;1.85;;;1.45;;
19167;SDS011;9716;53.114;18.040;2023-04-22T09:15:15;5.05;;;1.42;;
19167;SDS011;9716;53.114;18.040;2023-04-22T09:17:44;3.38;;;1.55;;
19167;SDS011;9716;53.114;18.040;2023-04-22T09:20:12;2.78;;;1.45;;
19167;SDS011;9716;53.114;18.040;2023-04-22T09:22:44;1.75;;;1.17;;
19167;SDS011;9716;53.114;18.040;2023-04-22T09:25:15;1.80;;;1.27;;
19167;SDS011;9716;53.114;18.040;2023-04-22T09:27:47;1.40;;;1.30;;
19167;SDS011;9716;53.114;18.040;2023-04-22T09:30:16;12.88;;;1.67;;
19167;SDS011;9716;53.114;18.040;2023-04-22T09:32:53;2.05;;;1.55;;
19167;SDS011;9716;53.114;18.040;2023-04-22T09:35:26;3.50;;;1.58;;
19167;SDS011;9716;53.114;18.040;2023-04-22T09:37:57;2.25;;;1.50;;
19167;SDS011;9716;53.114;18.040;2023-04-22T09:40:28;2.28;;;1.40;;
19167;SDS011;9716;53.114;18.040;2023-04-22T09:42:59;2.28;;;1.48;;
19167;SDS011;9716;53.114;18.040;2023-04-22T09:45:29;2.83;;;1.70;;
19167;SDS011;9716;53.114;18.040;2023-04-22T09:48:00;1.83;;;1.40;;
19167;SDS011;9716;53.114;18.040;2023-04-22T09:50:30;8.25;;;1.70;;
19167;SDS011;9716;53.114;18.040;2023-04-22T09:52:59;4.20;;;1.45;;
19167;SDS011;9716;53.114;18.040;2023-04-22T09:55:32;2.80;;;1.48;;
19167;SDS011;9716;53.114;18.040;2023-04-22T09:58:04;1.40;;;1.25;;
19167;SDS011;9716;53.114;18.040;2023-04-22T10:00:36;2.47;;;1.55;;
19167;SDS011;9716;53.114;18.040;2023-04-22T10:03:08;4.75;;;1.25;;
19167;SDS011;9716;53.114;18.040;2023-04-22T10:05:37;2.25;;;1.25;;
19167;SDS011;9716;53.114;18.040;2023-04-22T10:08:07;2.53;;;1.50;;
19167;SDS011;9716;53.114;18.040;2023-04-22T10:10:38;2.60;;;1.38;;
19167;SDS011;9716;53.114;18.040;2023-04-22T10:13:07;1.50;;;1.27;;
19167;SDS011;9716;53.114;18.040;2023-04-22T10:15:37;2.17;;;1.60;;
19167;SDS011;9716;53.114;18.040;2023-04-22T10:18:09;2.33;;;1.33;;
19167;SDS011;9716;53.114;18.040;2023-04-22T10:20:39;2.75;;;1.55;;
19167;SDS011;9716;53.114;18.040;2023-04-22T10:23:11;4.97;;;1.50;;
19167;SDS011;9716;53.114;18.040;2023-04-22T10:25:43;2.30;;;1.60;;
19167;SDS011;9716;53.114;18.040;2023-04-22T10:28:15;1.13;;;1.02;;
19167;SDS011;9716;53.114;18.040;2023-04-22T10:30:44;1.00;;;0.82;;
19167;SDS011;9716;53.114;18.040;2023-04-22T10:36:08;3.70;;;1.35;;
19167;SDS011;9716;53.114;18.040;2023-04-22T10:41:50;9.93;;;1.55;;
19167;SDS011;9716;53.114;18.040;2023-04-22T10:44:20;2.35;;;1.83;;
19167;SDS011;9716;53.114;18.040;2023-04-22T10:46:56;1.90;;;1.33;;
19167;SDS011;9716;53.114;18.040;2023-04-22T10:49:28;2.58;;;1.63;;
19167;SDS011;9716;53.114;18.040;2023-04-22T10:51:58;1.98;;;1.40;;
19167;SDS011;9716;53.114;18.040;2023-04-22T10:57:29;3.55;;;1.55;;
19167;SDS011;9716;53.114;18.040;2023-04-22T11:03:07;3.35;;;1.42;;
19167;SDS011;9716;53.114;18.040;2023-04-22T11:05:41;10.02;;;1.70;;
19167;SDS011;9716;53.114;18.040;2023-04-22T11:08:14;3.97;;;1.50;;
19167;SDS011;9716;53.114;18.040;2023-04-22T11:10:48;1.92;;;1.58;;
19167;SDS011;9716;53.114;18.040;2023-04-22T11:13:19;1.42;;;1.25;;
19167;SDS011;9716;53.114;18.040;2023-04-22T11:15:53;8.60;;;1.35;;
19167;SDS011;9716;53.114;18.040;2023-04-22T11:18:22;3.28;;;1.45;;
19167;SDS011;9716;53.114;18.040;2023-04-22T11:20:53;3.22;;;1.42;;
19167;SDS011;9716;53.114;18.040;2023-04-22T11:23:22;2.13;;;1.80;;
19167;SDS011;9716;53.114;18.040;2023-04-22T11:25:53;2.05;;;1.23;;
19167;SDS011;9716;53.114;18.040;2023-04-22T11:28:24;1.63;;;1.20;;
19167;SDS011;9716;53.114;18.040;2023-04-22T11:31:01;2.55;;;1.80;;
19167;SDS011;9716;53.114;18.040;2023-04-22T11:33:34;3.47;;;1.92;;
19167;SDS011;9716;53.114;18.040;2023-04-22T11:36:08;9.80;;;2.05;;
19167;SDS011;9716;53.114;18.040;2023-04-22T11:38:37;4.50;;;1.48;;
19167;SDS011;9716;53.114;18.040;2023-04-22T11:41:06;4.90;;;1.58;;
19167;SDS011;9716;53.114;18.040;2023-04-22T11:43:45;3.63;;;1.85;;
19167;SDS011;9716;53.114;18.040;2023-04-22T11:46:14;2.67;;;1.77;;
19167;SDS011;9716;53.114;18.040;2023-04-22T11:48:42;1.85;;;1.50;;
19167;SDS011;9716;53.114;18.040;2023-04-22T11:51:11;1.90;;;1.70;;
19167;SDS011;9716;53.114;18.040;2023-04-22T11:53:46;1.20;;;1.10;;
19167;SDS011;9716;53.114;18.040;2023-04-22T11:56:17;3.80;;;1.92;;
19167;SDS011;9716;53.114;18.040;2023-04-22T11:58:48;1.60;;;1.30;;
19167;SDS011;9716;53.114;18.040;2023-04-22T12:01:17;5.15;;;1.58;;
19167;SDS011;9716;53.114;18.040;2023-04-22T12:03:45;2.08;;;1.08;;
19167;SDS011;9716;53.114;18.040;2023-04-22T12:06:14;8.43;;;1.80;;
19167;SDS011;9716;53.114;18.040;2023-04-22T12:08:43;2.90;;;1.48;;
19167;SDS011;9716;53.114;18.040;2023-04-22T12:11:13;1.92;;;1.55;;
19167;SDS011;9716;53.114;18.040;2023-04-22T12:13:42;2.85;;;1.33;;
19167;SDS011;9716;53.114;18.040;2023-04-22T12:16:16;4.05;;;1.77;;
19167;SDS011;9716;53.114;18.040;2023-04-22T12:18:47;3.55;;;1.48;;
19167;SDS011;9716;53.114;18.040;2023-04-22T12:21:18;2.50;;;1.60;;
19167;SDS011;9716;53.114;18.040;2023-04-22T12:23:48;2.97;;;1.98;;
19167;SDS011;9716;53.114;18.040;2023-04-22T12:26:19;3.35;;;1.50;;
19167;SDS011;9716;53.114;18.040;2023-04-22T12:28:53;3.78;;;2.15;;
19167;SDS011;9716;53.114;18.040;2023-04-22T12:31:23;4.93;;;2.05;;
19167;SDS011;9716;53.114;18.040;2023-04-22T12:33:52;5.20;;;1.85;;
19167;SDS011;9716;53.114;18.040;2023-04-22T12:36:22;2.08;;;1.63;;
19167;SDS011;9716;53.114;18.040;2023-04-22T12:38:50;2.25;;;1.60;;
19167;SDS011;9716;53.114;18.040;2023-04-22T12:41:19;5.07;;;1.38;;
19167;SDS011;9716;53.114;18.040;2023-04-22T12:43:48;5.88;;;1.70;;
19167;SDS011;9716;53.114;18.040;2023-04-22T12:46:18;5.45;;;1.70;;
19167;SDS011;9716;53.114;18.040;2023-04-22T12:48:48;3.28;;;1.13;;
19167;SDS011;9716;53.114;18.040;2023-04-22T12:51:17;1.60;;;1.40;;
19167;SDS011;9716;53.114;18.040;2023-04-22T12:53:45;2.17;;;1.70;;
19167;SDS011;9716;53.114;18.040;2023-04-22T12:56:14;1.52;;;1.25;;
19167;SDS011;9716;53.114;18.040;2023-04-22T12:58:42;2.25;;;1.70;;
19167;SDS011;9716;53.114;18.040;2023-04-22T13:01:10;2.30;;;1.63;;
19167;SDS011;9716;53.114;18.040;2023-04-22T13:03:39;6.93;;;1.40;;
19167;SDS011;9716;53.114;18.040;2023-04-22T13:06:09;1.67;;;1.40;;
19167;SDS011;9716;53.114;18.040;2023-04-22T13:08:37;2.65;;;1.40;;
19167;SDS011;9716;53.114;18.040;2023-04-22T13:11:06;4.15;;;1.70;;
19167;SDS011;9716;53.114;18.040;2023-04-22T13:13:34;2.92;;;1.80;;
19167;SDS011;9716;53.114;18.040;2023-04-22T13:16:03;2.80;;;1.67;;
19167;SDS011;9716;53.114;18.040;2023-04-22T13:18:32;3.88;;;1.70;;
19167;SDS011;9716;53.114;18.040;2023-04-22T13:21:00;2.85;;;1.88;;
19167;SDS011;9716;53.114;18.040;2023-04-22T13:23:30;1.35;;;1.17;;
19167;SDS011;9716;53.114;18.040;2023-04-22T13:25:59;2.22;;;1.40;;
19167;SDS011;9716;53.114;18.040;2023-04-22T13:28:28;3.28;;;1.83;;
19167;SDS011;9716;53.114;18.040;2023-04-22T13:30:57;3.13;;;1.63;;
19167;SDS011;9716;53.114;18.040;2023-04-22T13:33:25;2.05;;;1.30;;
19167;SDS011;9716;53.114;18.040;2023-04-22T13:35:54;3.95;;;1.50;;
19167;SDS011;9716;53.114;18.040;2023-04-22T13:38:22;1.98;;;1.77;;
19167;SDS011;9716;53.114;18.040;2023-04-22T13:40:52;1.60;;;1.10;;
19167;SDS011;9716;53.114;18.040;2023-04-22T13:43:20;3.35;;;1.63;;
19167;SDS011;9716;53.114;18.040;2023-04-22T13:45:49;4.95;;;1.80;;
19167;SDS011;9716;53.114;18.040;2023-04-22T13:48:18;1.73;;;1.35;;
19167;SDS011;9716;53.114;18.040;2023-04-22T13:50:47;1.35;;;1.25;;
19167;SDS011;9716;53.114;18.040;2023-04-22T13:53:15;1.50;;;1.40;;
19167;SDS011;9716;53.114;18.040;2023-04-22T13:55:44;6.00;;;1.52;;
19167;SDS011;9716;53.114;18.040;2023-04-22T13:58:14;1.33;;;1.23;;
19167;SDS011;9716;53.114;18.040;2023-04-22T14:00:43;2.33;;;1.20;;
19167;SDS011;9716;53.114;18.040;2023-04-22T14:03:11;5.03;;;1.58;;
19167;SDS011;9716;53.114;18.040;2023-04-22T14:05:40;1.42;;;1.25;;
19167;SDS011;9716;53.114;18.040;2023-04-22T14:08:08;2.05;;;1.80;;
19167;SDS011;9716;53.114;18.040;2023-04-22T14:10:37;2.17;;;1.25;;
19167;SDS011;9716;53.114;18.040;2023-04-22T14:13:06;1.92;;;1.45;;
19167;SDS011;9716;53.114;18.040;2023-04-22T14:15:37;1.67;;;1.52;;
19167;SDS011;9716;53.114;18.040;2023-04-22T14:18:05;4.72;;;1.58;;
19167;SDS011;9716;53.114;18.040;2023-04-22T14:20:34;2.08;;;1.33;;
19167;SDS011;9716;53.114;18.040;2023-04-22T14:23:02;2.05;;;1.63;;
19167;SDS011;9716;53.114;18.040;2023-04-22T14:25:31;9.05;;;1.92;;
19167;SDS011;9716;53.114;18.040;2023-04-22T14:28:00;4.05;;;1.83;;
19167;SDS011;9716;53.114;18.040;2023-04-22T14:30:29;1.88;;;1.30;;
19167;SDS011;9716;53.114;18.040;2023-04-22T14:32:59;5.68;;;1.52;;
19167;SDS011;9716;53.114;18.040;2023-04-22T14:35:28;4.00;;;1.98;;
19167;SDS011;9716;53.114;18.040;2023-04-22T14:37:56;4.03;;;1.58;;
19167;SDS011;9716;53.114;18.040;2023-04-22T14:40:25;3.00;;;1.85;;
19167;SDS011;9716;53.114;18.040;2023-04-22T14:42:54;3.10;;;1.70;;
19167;SDS011;9716;53.114;18.040;2023-04-22T14:45:24;2.40;;;1.77;;
19167;SDS011;9716;53.114;18.040;2023-04-22T14:47:54;3.33;;;2.25;;
19167;SDS011;9716;53.114;18.040;2023-04-22T14:50:25;3.95;;;1.75;;
19167;SDS011;9716;53.114;18.040;2023-04-22T14:52:53;4.90;;;1.90;;
19167;SDS011;9716;53.114;18.040;2023-04-22T14:55:22;4.63;;;2.08;;
19167;SDS011;9716;53.114;18.040;2023-04-22T14:57:52;2.58;;;2.05;;
19167;SDS011;9716;53.114;18.040;2023-04-22T15:00:22;4.55;;;2.42;;
19167;SDS011;9716;53.114;18.040;2023-04-22T15:02:52;6.50;;;2.92;;
19167;SDS011;9716;53.114;18.040;2023-04-22T15:05:21;3.95;;;2.30;;
19167;SDS011;9716;53.114;18.040;2023-04-22T15:07:51;4.10;;;2.35;;
19167;SDS011;9716;53.114;18.040;2023-04-22T15:10:20;3.58;;;2.45;;